sensor_id;sensor_type;location;lat;lon;timestamp;P1;durP1;ratioP1;P2;durP2;ratioP2
17363;SDS011;8799;43.594;13.526;2024-03-23T00:54:29;8.07;;;3.83;;
17363;SDS011;8799;43.594;13.526;2024-03-23T00:56:56;5.83;;;3.67;;
17363;SDS011;8799;43.594;13.526;2024-03-23T00:59:23;7.40;;;4.40;;
17363;SDS011;8799;43.594;13.526;2024-03-23T01:01:53;8.27;;;4.43;;
17363;SDS011;8799;43.594;13.526;2024-03-23T01:04:20;5.87;;;3.83;;
17363;SDS011;8799;43.594;13.526;2024-03-23T01:06:50;9.53;;;4.60;;
17363;SDS011;8799;43.594;13.526;2024-03-23T01:09:16;7.07;;;3.87;;
17363;SDS011;8799;43.594;13.526;2024-03-23T01:11:44;6.20;;;4.07;;
17363;SDS011;8799;43.594;13.526;2024-03-23T01:14:10;7.47;;;4.20;;
17363;SDS011;8799;43.594;13.526;2024-03-23T01:16:38;7.27;;;4.03;;
17363;SDS011;8799;43.594;13.526;2024-03-23T01:19:05;7.60;;;4.37;;
17363;SDS011;8799;43.594;13.526;2024-03-23T01:21:32;7.00;;;3.87;;
17363;SDS011;8799;43.594;13.526;2024-03-23T01:24:01;7.30;;;4.33;;
17363;SDS011;8799;43.594;13.526;2024-03-23T01:26:29;8.73;;;4.37;;
17363;SDS011;8799;43.594;13.526;2024-03-23T01:28:55;9.90;;;4.73;;
17363;SDS011;8799;43.594;13.526;2024-03-23T01:31:23;5.67;;;3.53;;
17363;SDS011;8799;43.594;13.526;2024-03-23T01:33:49;7.10;;;3.90;;
17363;SDS011;8799;43.594;13.526;2024-03-23T01:36:18;6.17;;;3.77;;
17363;SDS011;8799;43.594;13.526;2024-03-23T01:38:44;7.07;;;4.30;;
17363;SDS011;8799;43.594;13.526;2024-03-23T01:41:14;7.83;;;4.10;;
17363;SDS011;8799;43.594;13.526;2024-03-23T01:43:41;9.77;;;4.40;;
17363;SDS011;8799;43.594;13.526;2024-03-23T01:46:09;7.40;;;3.80;;
17363;SDS011;8799;43.594;13.526;2024-03-23T01:48:35;6.77;;;4.10;;
17363;SDS011;8799;43.594;13.526;2024-03-23T01:51:03;9.23;;;4.40;;
17363;SDS011;8799;43.594;13.526;2024-03-23T01:53:31;9.40;;;4.30;;
17363;SDS011;8799;43.594;13.526;2024-03-23T01:55:59;8.13;;;4.27;;
17363;SDS011;8799;43.594;13.526;2024-03-23T01:58:27;7.47;;;4.27;;
17363;SDS011;8799;43.594;13.526;2024-03-23T02:00:55;12.47;;;4.90;;
17363;SDS011;8799;43.594;13.526;2024-03-23T02:03:23;6.47;;;4.33;;
17363;SDS011;8799;43.594;13.526;2024-03-23T02:05:51;7.53;;;4.50;;
17363;SDS011;8799;43.594;13.526;2024-03-23T02:08:18;5.97;;;4.23;;
17363;SDS011;8799;43.594;13.526;2024-03-23T02:10:47;6.53;;;4.00;;
17363;SDS011;8799;43.594;13.526;2024-03-23T02:13:14;5.97;;;4.20;;
17363;SDS011;8799;43.594;13.526;2024-03-23T02:15:44;8.37;;;4.00;;
17363;SDS011;8799;43.594;13.526;2024-03-23T02:18:10;5.97;;;3.97;;
17363;SDS011;8799;43.594;13.526;2024-03-23T02:20:39;8.50;;;4.27;;
17363;SDS011;8799;43.594;13.526;2024-03-23T02:23:10;8.03;;;4.27;;
17363;SDS011;8799;43.594;13.526;2024-03-23T02:25:40;9.67;;;4.63;;
17363;SDS011;8799;43.594;13.526;2024-03-23T02:28:07;9.20;;;4.13;;
17363;SDS011;8799;43.594;13.526;2024-03-23T02:30:35;7.03;;;4.13;;
17363;SDS011;8799;43.594;13.526;2024-03-23T02:33:01;9.77;;;4.53;;
17363;SDS011;8799;43.594;13.526;2024-03-23T02:35:29;6.23;;;3.83;;
17363;SDS011;8799;43.594;13.526;2024-03-23T02:37:56;9.17;;;4.40;;
17363;SDS011;8799;43.594;13.526;2024-03-23T02:40:26;7.83;;;4.40;;
17363;SDS011;8799;43.594;13.526;2024-03-23T02:42:53;10.70;;;4.07;;
17363;SDS011;8799;43.594;13.526;2024-03-23T02:45:21;8.13;;;4.53;;
17363;SDS011;8799;43.594;13.526;2024-03-23T02:47:47;8.83;;;4.47;;
17363;SDS011;8799;43.594;13.526;2024-03-23T02:50:17;7.97;;;4.20;;
17363;SDS011;8799;43.594;13.526;2024-03-23T02:52:43;6.97;;;4.40;;
17363;SDS011;8799;43.594;13.526;2024-03-23T02:55:11;7.47;;;4.43;;
17363;SDS011;8799;43.594;13.526;2024-03-23T02:57:41;7.43;;;4.67;;
17363;SDS011;8799;43.594;13.526;2024-03-23T03:00:09;6.33;;;4.13;;
17363;SDS011;8799;43.594;13.526;2024-03-23T03:02:36;7.30;;;4.37;;
17363;SDS011;8799;43.594;13.526;2024-03-23T03:05:05;9.33;;;5.00;;
17363;SDS011;8799;43.594;13.526;2024-03-23T03:07:31;8.20;;;4.67;;
17363;SDS011;8799;43.594;13.526;2024-03-23T03:09:59;8.23;;;4.13;;
17363;SDS011;8799;43.594;13.526;2024-03-23T03:12:25;8.23;;;4.80;;
17363;SDS011;8799;43.594;13.526;2024-03-23T03:14:55;7.73;;;4.70;;
17363;SDS011;8799;43.594;13.526;2024-03-23T03:17:22;8.93;;;4.50;;
17363;SDS011;8799;43.594;13.526;2024-03-23T03:19:50;7.07;;;3.83;;
17363;SDS011;8799;43.594;13.526;2024-03-23T03:22:20;6.37;;;4.03;;
17363;SDS011;8799;43.594;13.526;2024-03-23T03:24:48;7.17;;;4.10;;
17363;SDS011;8799;43.594;13.526;2024-03-23T03:27:14;7.27;;;4.13;;
17363;SDS011;8799;43.594;13.526;2024-03-23T03:29:42;9.87;;;5.27;;
17363;SDS011;8799;43.594;13.526;2024-03-23T03:32:10;7.73;;;4.43;;
17363;SDS011;8799;43.594;13.526;2024-03-23T03:34:37;7.00;;;4.37;;
17363;SDS011;8799;43.594;13.526;2024-03-23T03:37:04;8.93;;;4.57;;
17363;SDS011;8799;43.594;13.526;2024-03-23T03:39:32;7.63;;;4.40;;
17363;SDS011;8799;43.594;13.526;2024-03-23T03:41:58;7.53;;;4.43;;
17363;SDS011;8799;43.594;13.526;2024-03-23T03:44:26;7.30;;;4.37;;
17363;SDS011;8799;43.594;13.526;2024-03-23T03:46:53;7.33;;;4.50;;
17363;SDS011;8799;43.594;13.526;2024-03-23T03:49:23;6.97;;;4.37;;
17363;SDS011;8799;43.594;13.526;2024-03-23T03:51:49;8.37;;;4.70;;
17363;SDS011;8799;43.594;13.526;2024-03-23T03:54:17;8.60;;;4.43;;
17363;SDS011;8799;43.594;13.526;2024-03-23T03:56:44;7.43;;;3.93;;
17363;SDS011;8799;43.594;13.526;2024-03-23T03:59:12;8.47;;;4.40;;
17363;SDS011;8799;43.594;13.526;2024-03-23T04:01:38;8.93;;;4.63;;
17363;SDS011;8799;43.594;13.526;2024-03-23T04:04:07;7.23;;;4.50;;
17363;SDS011;8799;43.594;13.526;2024-03-23T04:06:35;8.10;;;4.43;;
17363;SDS011;8799;43.594;13.526;2024-03-23T04:09:03;6.70;;;4.17;;
17363;SDS011;8799;43.594;13.526;2024-03-23T04:11:29;8.67;;;5.07;;
17363;SDS011;8799;43.594;13.526;2024-03-23T04:13:57;7.10;;;4.60;;
17363;SDS011;8799;43.594;13.526;2024-03-23T04:16:27;8.57;;;4.43;;
17363;SDS011;8799;43.594;13.526;2024-03-23T04:18:55;8.67;;;4.40;;
17363;SDS011;8799;43.594;13.526;2024-03-23T04:21:21;7.77;;;4.47;;
17363;SDS011;8799;43.594;13.526;2024-03-23T04:23:51;7.43;;;4.20;;
17363;SDS011;8799;43.594;13.526;2024-03-23T04:26:17;8.00;;;4.30;;
17363;SDS011;8799;43.594;13.526;2024-03-23T04:28:45;7.40;;;4.07;;
17363;SDS011;8799;43.594;13.526;2024-03-23T04:31:11;7.37;;;4.47;;
17363;SDS011;8799;43.594;13.526;2024-03-23T04:33:39;8.60;;;4.40;;
17363;SDS011;8799;43.594;13.526;2024-03-23T04:36:05;6.90;;;4.20;;
17363;SDS011;8799;43.594;13.526;2024-03-23T04:38:34;8.20;;;4.63;;
17363;SDS011;8799;43.594;13.526;2024-03-23T04:41:03;6.63;;;4.40;;
17363;SDS011;8799;43.594;13.526;2024-03-23T04:43:31;6.90;;;4.40;;
17363;SDS011;8799;43.594;13.526;2024-03-23T04:45:59;7.13;;;4.40;;
17363;SDS011;8799;43.594;13.526;2024-03-23T04:48:27;6.63;;;4.10;;
17363;SDS011;8799;43.594;13.526;2024-03-23T04:50:55;7.63;;;4.20;;
17363;SDS011;8799;43.594;13.526;2024-03-23T04:53:23;6.67;;;4.47;;
17363;SDS011;8799;43.594;13.526;2024-03-23T04:55:53;8.63;;;4.63;;
17363;SDS011;8799;43.594;13.526;2024-03-23T04:58:21;6.40;;;4.17;;
17363;SDS011;8799;43.594;13.526;2024-03-23T05:00:52;7.40;;;4.33;;
17363;SDS011;8799;43.594;13.526;2024-03-23T05:03:20;7.73;;;4.37;;
17363;SDS011;8799;43.594;13.526;2024-03-23T05:05:48;11.73;;;4.50;;
17363;SDS011;8799;43.594;13.526;2024-03-23T05:08:15;6.40;;;4.30;;
17363;SDS011;8799;43.594;13.526;2024-03-23T05:10:43;7.13;;;3.90;;
17363;SDS011;8799;43.594;13.526;2024-03-23T05:13:09;7.73;;;4.27;;
17363;SDS011;8799;43.594;13.526;2024-03-23T05:15:38;7.87;;;4.63;;
17363;SDS011;8799;43.594;13.526;2024-03-23T05:18:05;6.93;;;3.83;;
17363;SDS011;8799;43.594;13.526;2024-03-23T05:20:33;7.20;;;4.43;;
17363;SDS011;8799;43.594;13.526;2024-03-23T05:22:59;6.77;;;4.10;;
17363;SDS011;8799;43.594;13.526;2024-03-23T05:25:27;7.60;;;4.03;;
17363;SDS011;8799;43.594;13.526;2024-03-23T05:27:54;6.80;;;4.10;;
17363;SDS011;8799;43.594;13.526;2024-03-23T05:30:22;6.47;;;4.07;;
17363;SDS011;8799;43.594;13.526;2024-03-23T05:32:50;8.80;;;4.57;;
17363;SDS011;8799;43.594;13.526;2024-03-23T05:35:18;8.77;;;3.77;;
17363;SDS011;8799;43.594;13.526;2024-03-23T05:37:44;7.63;;;3.60;;
17363;SDS011;8799;43.594;13.526;2024-03-23T05:40:12;5.73;;;3.50;;
17363;SDS011;8799;43.594;13.526;2024-03-23T05:42:40;9.50;;;3.93;;
17363;SDS011;8799;43.594;13.526;2024-03-23T05:45:08;5.57;;;3.70;;
17363;SDS011;8799;43.594;13.526;2024-03-23T05:47:35;6.70;;;3.60;;
17363;SDS011;8799;43.594;13.526;2024-03-23T05:50:05;6.70;;;4.43;;
17363;SDS011;8799;43.594;13.526;2024-03-23T05:52:35;6.87;;;4.00;;
17363;SDS011;8799;43.594;13.526;2024-03-23T05:55:03;5.23;;;3.80;;
17363;SDS011;8799;43.594;13.526;2024-03-23T05:57:29;7.83;;;3.97;;
17363;SDS011;8799;43.594;13.526;2024-03-23T05:59:57;6.00;;;3.70;;
17363;SDS011;8799;43.594;13.526;2024-03-23T06:02:25;7.10;;;4.30;;
17363;SDS011;8799;43.594;13.526;2024-03-23T06:04:51;8.40;;;4.20;;
17363;SDS011;8799;43.594;13.526;2024-03-23T06:07:21;7.03;;;3.87;;
17363;SDS011;8799;43.594;13.526;2024-03-23T06:09:47;7.30;;;4.10;;
17363;SDS011;8799;43.594;13.526;2024-03-23T06:12:16;6.43;;;4.13;;
17363;SDS011;8799;43.594;13.526;2024-03-23T06:14:42;6.80;;;4.03;;
17363;SDS011;8799;43.594;13.526;2024-03-23T06:17:10;9.23;;;4.60;;
17363;SDS011;8799;43.594;13.526;2024-03-23T06:19:39;7.63;;;4.00;;
17363;SDS011;8799;43.594;13.526;2024-03-23T06:22:06;6.80;;;3.53;;
17363;SDS011;8799;43.594;13.526;2024-03-23T06:24:34;5.60;;;3.50;;
17363;SDS011;8799;43.594;13.526;2024-03-23T06:27:03;6.00;;;3.63;;
17363;SDS011;8799;43.594;13.526;2024-03-23T06:29:29;5.90;;;3.53;;
17363;SDS011;8799;43.594;13.526;2024-03-23T06:31:57;7.37;;;4.00;;
17363;SDS011;8799;43.594;13.526;2024-03-23T06:34:23;10.50;;;4.23;;
17363;SDS011;8799;43.594;13.526;2024-03-23T06:36:52;6.50;;;3.10;;
17363;SDS011;8799;43.594;13.526;2024-03-23T06:39:18;8.17;;;4.40;;
17363;SDS011;8799;43.594;13.526;2024-03-23T06:41:52;7.80;;;4.20;;
17363;SDS011;8799;43.594;13.526;2024-03-23T06:44:19;5.97;;;3.40;;
17363;SDS011;8799;43.594;13.526;2024-03-23T06:46:47;6.93;;;3.53;;
17363;SDS011;8799;43.594;13.526;2024-03-23T06:49:14;6.97;;;3.60;;
17363;SDS011;8799;43.594;13.526;2024-03-23T06:51:42;6.57;;;3.50;;
17363;SDS011;8799;43.594;13.526;2024-03-23T06:54:08;7.33;;;3.77;;
17363;SDS011;8799;43.594;13.526;2024-03-23T06:56:36;8.83;;;3.87;;
17363;SDS011;8799;43.594;13.526;2024-03-23T06:59:04;6.20;;;3.40;;
17363;SDS011;8799;43.594;13.526;2024-03-23T07:01:32;9.00;;;3.77;;
17363;SDS011;8799;43.594;13.526;2024-03-23T07:03:58;14.57;;;4.80;;
17363;SDS011;8799;43.594;13.526;2024-03-23T07:06:26;12.13;;;4.20;;
17363;SDS011;8799;43.594;13.526;2024-03-23T07:08:52;10.10;;;3.77;;
17363;SDS011;8799;43.594;13.526;2024-03-23T07:11:20;8.00;;;4.03;;
17363;SDS011;8799;43.594;13.526;2024-03-23T07:13:49;9.57;;;4.03;;
17363;SDS011;8799;43.594;13.526;2024-03-23T07:16:18;9.00;;;3.27;;
17363;SDS011;8799;43.594;13.526;2024-03-23T07:18:45;9.53;;;4.60;;
17363;SDS011;8799;43.594;13.526;2024-03-23T07:21:14;7.23;;;3.83;;
17363;SDS011;8799;43.594;13.526;2024-03-23T07:23:41;12.40;;;3.87;;
17363;SDS011;8799;43.594;13.526;2024-03-23T07:26:10;6.83;;;3.57;;
17363;SDS011;8799;43.594;13.526;2024-03-23T07:28:36;13.80;;;3.40;;
17363;SDS011;8799;43.594;13.526;2024-03-23T07:31:08;8.77;;;3.60;;
17363;SDS011;8799;43.594;13.526;2024-03-23T07:33:37;9.83;;;4.30;;
17363;SDS011;8799;43.594;13.526;2024-03-23T07:36:05;7.67;;;3.77;;
17363;SDS011;8799;43.594;13.526;2024-03-23T07:38:32;5.40;;;3.50;;
17363;SDS011;8799;43.594;13.526;2024-03-23T07:41:03;7.13;;;4.13;;
17363;SDS011;8799;43.594;13.526;2024-03-23T07:43:30;9.33;;;4.43;;
17363;SDS011;8799;43.594;13.526;2024-03-23T07:45:58;10.07;;;3.57;;
17363;SDS011;8799;43.594;13.526;2024-03-23T07:48:24;8.40;;;3.57;;
17363;SDS011;8799;43.594;13.526;2024-03-23T07:51:01;11.23;;;5.60;;
17363;SDS011;8799;43.594;13.526;2024-03-23T07:53:27;15.33;;;6.60;;
17363;SDS011;8799;43.594;13.526;2024-03-23T07:55:56;26.47;;;11.30;;
17363;SDS011;8799;43.594;13.526;2024-03-23T07:58:23;29.60;;;12.83;;
17363;SDS011;8799;43.594;13.526;2024-03-23T08:00:51;31.00;;;11.90;;
17363;SDS011;8799;43.594;13.526;2024-03-23T08:03:17;24.13;;;11.63;;
17363;SDS011;8799;43.594;13.526;2024-03-23T08:05:45;25.93;;;11.23;;
17363;SDS011;8799;43.594;13.526;2024-03-23T08:08:13;26.33;;;10.83;;
17363;SDS011;8799;43.594;13.526;2024-03-23T08:10:48;21.40;;;11.50;;
17363;SDS011;8799;43.594;13.526;2024-03-23T08:13:14;26.50;;;11.50;;
17363;SDS011;8799;43.594;13.526;2024-03-23T08:15:42;26.57;;;11.30;;
17363;SDS011;8799;43.594;13.526;2024-03-23T08:18:09;19.27;;;9.43;;
17363;SDS011;8799;43.594;13.526;2024-03-23T08:20:37;24.27;;;10.90;;
17363;SDS011;8799;43.594;13.526;2024-03-23T08:23:04;24.83;;;11.20;;
17363;SDS011;8799;43.594;13.526;2024-03-23T08:25:34;25.30;;;11.27;;
17363;SDS011;8799;43.594;13.526;2024-03-23T08:28:00;21.40;;;10.33;;
17363;SDS011;8799;43.594;13.526;2024-03-23T08:30:28;24.60;;;10.00;;
17363;SDS011;8799;43.594;13.526;2024-03-23T08:32:55;23.63;;;10.17;;
17363;SDS011;8799;43.594;13.526;2024-03-23T08:35:23;17.83;;;9.37;;
17363;SDS011;8799;43.594;13.526;2024-03-23T08:37:49;19.23;;;9.20;;
17363;SDS011;8799;43.594;13.526;2024-03-23T08:40:17;22.20;;;10.10;;
17363;SDS011;8799;43.594;13.526;2024-03-23T08:42:45;16.77;;;9.47;;
17363;SDS011;8799;43.594;13.526;2024-03-23T08:45:13;20.70;;;10.10;;
17363;SDS011;8799;43.594;13.526;2024-03-23T08:47:39;20.23;;;10.13;;
17363;SDS011;8799;43.594;13.526;2024-03-23T08:50:07;21.40;;;8.70;;
17363;SDS011;8799;43.594;13.526;2024-03-23T08:52:34;19.53;;;8.70;;
17363;SDS011;8799;43.594;13.526;2024-03-23T08:55:01;18.07;;;8.27;;
17363;SDS011;8799;43.594;13.526;2024-03-23T08:57:27;16.90;;;7.93;;
17363;SDS011;8799;43.594;13.526;2024-03-23T08:59:56;18.20;;;9.00;;
17363;SDS011;8799;43.594;13.526;2024-03-23T09:02:23;15.93;;;7.97;;
17363;SDS011;8799;43.594;13.526;2024-03-23T09:04:51;18.37;;;8.30;;
17363;SDS011;8799;43.594;13.526;2024-03-23T09:07:18;18.60;;;8.43;;
17363;SDS011;8799;43.594;13.526;2024-03-23T09:09:45;15.53;;;8.17;;
17363;SDS011;8799;43.594;13.526;2024-03-23T09:12:12;16.07;;;7.17;;
17363;SDS011;8799;43.594;13.526;2024-03-23T09:14:40;13.53;;;7.43;;
17363;SDS011;8799;43.594;13.526;2024-03-23T09:17:08;17.10;;;7.93;;
17363;SDS011;8799;43.594;13.526;2024-03-23T09:19:35;17.23;;;7.67;;
17363;SDS011;8799;43.594;13.526;2024-03-23T09:22:02;14.23;;;7.40;;
17363;SDS011;8799;43.594;13.526;2024-03-23T09:24:30;15.77;;;7.23;;
17363;SDS011;8799;43.594;13.526;2024-03-23T09:26:57;12.20;;;6.93;;
17363;SDS011;8799;43.594;13.526;2024-03-23T09:29:25;12.63;;;7.33;;
17363;SDS011;8799;43.594;13.526;2024-03-23T09:31:51;14.03;;;7.30;;
17363;SDS011;8799;43.594;13.526;2024-03-23T09:34:21;14.87;;;7.63;;
17363;SDS011;8799;43.594;13.526;2024-03-23T09:36:50;20.10;;;8.00;;
17363;SDS011;8799;43.594;13.526;2024-03-23T09:39:18;13.53;;;6.60;;
17363;SDS011;8799;43.594;13.526;2024-03-23T09:41:44;13.57;;;7.17;;
17363;SDS011;8799;43.594;13.526;2024-03-23T09:44:13;15.43;;;6.93;;
17363;SDS011;8799;43.594;13.526;2024-03-23T09:46:39;12.77;;;7.20;;
17363;SDS011;8799;43.594;13.526;2024-03-23T09:49:07;13.60;;;6.97;;
17363;SDS011;8799;43.594;13.526;2024-03-23T09:51:36;14.23;;;6.30;;
17363;SDS011;8799;43.594;13.526;2024-03-23T09:54:04;13.23;;;6.33;;
17363;SDS011;8799;43.594;13.526;2024-03-23T09:56:31;14.20;;;6.37;;
17363;SDS011;8799;43.594;13.526;2024-03-23T09:59:01;15.30;;;7.23;;
17363;SDS011;8799;43.594;13.526;2024-03-23T10:01:29;13.80;;;6.50;;
17363;SDS011;8799;43.594;13.526;2024-03-23T10:03:57;12.07;;;5.20;;
17363;SDS011;8799;43.594;13.526;2024-03-23T10:06:23;13.63;;;6.20;;
17363;SDS011;8799;43.594;13.526;2024-03-23T10:08:53;10.33;;;5.67;;
17363;SDS011;8799;43.594;13.526;2024-03-23T10:11:20;13.33;;;5.90;;
17363;SDS011;8799;43.594;13.526;2024-03-23T10:13:47;14.53;;;6.00;;
17363;SDS011;8799;43.594;13.526;2024-03-23T10:16:20;11.13;;;5.60;;
17363;SDS011;8799;43.594;13.526;2024-03-23T10:18:49;9.73;;;4.93;;
17363;SDS011;8799;43.594;13.526;2024-03-23T10:21:16;10.10;;;4.80;;
17363;SDS011;8799;43.594;13.526;2024-03-23T10:23:44;9.57;;;5.50;;
17363;SDS011;8799;43.594;13.526;2024-03-23T10:26:16;7.63;;;4.87;;
17363;SDS011;8799;43.594;13.526;2024-03-23T10:28:51;10.37;;;5.70;;
17363;SDS011;8799;43.594;13.526;2024-03-23T10:31:18;13.83;;;6.00;;
17363;SDS011;8799;43.594;13.526;2024-03-23T10:33:46;12.30;;;5.07;;
17363;SDS011;8799;43.594;13.526;2024-03-23T10:36:13;12.20;;;5.93;;
17363;SDS011;8799;43.594;13.526;2024-03-23T10:38:42;10.60;;;5.60;;
17363;SDS011;8799;43.594;13.526;2024-03-23T10:41:09;11.13;;;5.60;;
17363;SDS011;8799;43.594;13.526;2024-03-23T10:43:39;9.73;;;5.10;;
17363;SDS011;8799;43.594;13.526;2024-03-23T10:46:05;8.97;;;4.00;;
17363;SDS011;8799;43.594;13.526;2024-03-23T10:48:34;13.53;;;5.37;;
17363;SDS011;8799;43.594;13.526;2024-03-23T10:51:00;11.90;;;4.87;;
17363;SDS011;8799;43.594;13.526;2024-03-23T10:53:28;11.07;;;4.77;;
17363;SDS011;8799;43.594;13.526;2024-03-23T10:55:55;9.17;;;4.77;;
17363;SDS011;8799;43.594;13.526;2024-03-23T10:58:23;11.40;;;4.33;;
17363;SDS011;8799;43.594;13.526;2024-03-23T11:00:53;7.40;;;4.37;;
17363;SDS011;8799;43.594;13.526;2024-03-23T11:03:30;6.50;;;4.03;;
17363;SDS011;8799;43.594;13.526;2024-03-23T11:05:58;9.37;;;4.87;;
17363;SDS011;8799;43.594;13.526;2024-03-23T11:08:32;8.17;;;3.97;;
17363;SDS011;8799;43.594;13.526;2024-03-23T11:11:13;12.60;;;5.07;;
17363;SDS011;8799;43.594;13.526;2024-03-23T11:13:40;7.03;;;3.80;;
17363;SDS011;8799;43.594;13.526;2024-03-23T11:16:15;8.17;;;4.30;;
17363;SDS011;8799;43.594;13.526;2024-03-23T11:18:44;9.13;;;4.40;;
17363;SDS011;8799;43.594;13.526;2024-03-23T11:21:10;10.27;;;4.03;;
17363;SDS011;8799;43.594;13.526;2024-03-23T11:23:38;11.03;;;4.87;;
17363;SDS011;8799;43.594;13.526;2024-03-23T11:26:07;6.93;;;3.57;;
17363;SDS011;8799;43.594;13.526;2024-03-23T11:28:35;9.97;;;4.30;;
17363;SDS011;8799;43.594;13.526;2024-03-23T11:31:08;8.67;;;4.17;;
17363;SDS011;8799;43.594;13.526;2024-03-23T11:33:38;7.67;;;4.10;;
17363;SDS011;8799;43.594;13.526;2024-03-23T11:36:05;7.93;;;3.73;;
17363;SDS011;8799;43.594;13.526;2024-03-23T11:38:36;6.97;;;3.83;;
17363;SDS011;8799;43.594;13.526;2024-03-23T11:41:03;8.83;;;3.83;;
17363;SDS011;8799;43.594;13.526;2024-03-23T11:43:31;7.93;;;3.77;;
17363;SDS011;8799;43.594;13.526;2024-03-23T11:45:57;7.90;;;3.57;;
17363;SDS011;8799;43.594;13.526;2024-03-23T11:48:49;6.07;;;3.47;;
17363;SDS011;8799;43.594;13.526;2024-03-23T11:51:15;8.03;;;3.50;;
17363;SDS011;8799;43.594;13.526;2024-03-23T11:53:49;7.23;;;4.07;;
17363;SDS011;8799;43.594;13.526;2024-03-23T11:56:16;7.17;;;3.67;;
17363;SDS011;8799;43.594;13.526;2024-03-23T11:58:45;5.67;;;3.80;;
17363;SDS011;8799;43.594;13.526;2024-03-23T12:01:14;7.77;;;4.30;;
17363;SDS011;8799;43.594;13.526;2024-03-23T12:03:43;7.37;;;3.70;;
17363;SDS011;8799;43.594;13.526;2024-03-23T12:06:10;7.23;;;3.60;;
17363;SDS011;8799;43.594;13.526;2024-03-23T12:08:39;5.77;;;3.17;;
17363;SDS011;8799;43.594;13.526;2024-03-23T12:11:06;8.03;;;3.53;;
17363;SDS011;8799;43.594;13.526;2024-03-23T12:13:34;6.47;;;3.07;;
17363;SDS011;8799;43.594;13.526;2024-03-23T12:16:08;8.07;;;3.37;;
17363;SDS011;8799;43.594;13.526;2024-03-23T12:18:37;6.43;;;3.23;;
17363;SDS011;8799;43.594;13.526;2024-03-23T12:21:05;6.73;;;3.50;;
17363;SDS011;8799;43.594;13.526;2024-03-23T12:23:32;9.73;;;3.53;;
17363;SDS011;8799;43.594;13.526;2024-03-23T12:25:59;8.53;;;3.23;;
17363;SDS011;8799;43.594;13.526;2024-03-23T12:28:27;6.63;;;3.60;;
17363;SDS011;8799;43.594;13.526;2024-03-23T12:30:53;5.13;;;3.50;;
17363;SDS011;8799;43.594;13.526;2024-03-23T12:33:21;6.23;;;3.43;;
17363;SDS011;8799;43.594;13.526;2024-03-23T12:35:48;6.80;;;3.10;;
17363;SDS011;8799;43.594;13.526;2024-03-23T12:38:17;5.53;;;3.20;;
17363;SDS011;8799;43.594;13.526;2024-03-23T12:40:46;5.27;;;2.93;;
17363;SDS011;8799;43.594;13.526;2024-03-23T12:43:14;5.43;;;2.60;;
17363;SDS011;8799;43.594;13.526;2024-03-23T12:45:41;6.57;;;2.87;;
17363;SDS011;8799;43.594;13.526;2024-03-23T12:48:13;4.57;;;2.87;;
17363;SDS011;8799;43.594;13.526;2024-03-23T12:50:40;9.60;;;2.93;;
17363;SDS011;8799;43.594;13.526;2024-03-23T12:53:08;5.60;;;3.23;;
17363;SDS011;8799;43.594;13.526;2024-03-23T12:55:36;6.87;;;3.10;;
17363;SDS011;8799;43.594;13.526;2024-03-23T12:58:04;5.10;;;2.63;;
17363;SDS011;8799;43.594;13.526;2024-03-23T13:00:30;4.63;;;3.00;;
17363;SDS011;8799;43.594;13.526;2024-03-23T13:02:58;6.60;;;3.33;;
17363;SDS011;8799;43.594;13.526;2024-03-23T13:05:24;5.27;;;2.90;;
17363;SDS011;8799;43.594;13.526;2024-03-23T13:07:53;5.73;;;2.83;;
17363;SDS011;8799;43.594;13.526;2024-03-23T13:10:19;4.97;;;2.73;;
17363;SDS011;8799;43.594;13.526;2024-03-23T13:12:49;5.13;;;2.90;;
17363;SDS011;8799;43.594;13.526;2024-03-23T13:15:16;6.50;;;3.20;;
17363;SDS011;8799;43.594;13.526;2024-03-23T13:17:45;4.47;;;2.83;;
17363;SDS011;8799;43.594;13.526;2024-03-23T13:20:12;8.57;;;3.30;;
17363;SDS011;8799;43.594;13.526;2024-03-23T13:22:40;5.33;;;2.67;;
17363;SDS011;8799;43.594;13.526;2024-03-23T13:25:06;5.37;;;3.20;;
17363;SDS011;8799;43.594;13.526;2024-03-23T13:27:34;4.73;;;2.70;;
17363;SDS011;8799;43.594;13.526;2024-03-23T13:30:03;5.77;;;2.57;;
17363;SDS011;8799;43.594;13.526;2024-03-23T13:32:32;5.10;;;2.50;;
17363;SDS011;8799;43.594;13.526;2024-03-23T13:34:58;4.30;;;2.50;;
17363;SDS011;8799;43.594;13.526;2024-03-23T13:37:25;4.70;;;3.10;;
17363;SDS011;8799;43.594;13.526;2024-03-23T13:39:52;4.87;;;2.80;;
17363;SDS011;8799;43.594;13.526;2024-03-23T13:42:20;4.97;;;2.60;;
17363;SDS011;8799;43.594;13.526;2024-03-23T13:44:46;3.53;;;2.30;;
17363;SDS011;8799;43.594;13.526;2024-03-23T13:47:16;4.23;;;2.27;;
17363;SDS011;8799;43.594;13.526;2024-03-23T13:49:44;4.43;;;2.50;;
17363;SDS011;8799;43.594;13.526;2024-03-23T13:52:11;4.57;;;2.57;;
17363;SDS011;8799;43.594;13.526;2024-03-23T13:54:38;4.70;;;2.47;;
17363;SDS011;8799;43.594;13.526;2024-03-23T13:57:10;3.57;;;2.30;;
17363;SDS011;8799;43.594;13.526;2024-03-23T13:59:36;4.23;;;2.50;;
17363;SDS011;8799;43.594;13.526;2024-03-23T14:02:05;5.97;;;2.43;;
17363;SDS011;8799;43.594;13.526;2024-03-23T14:04:33;4.07;;;2.07;;
17363;SDS011;8799;43.594;13.526;2024-03-23T14:07:02;6.33;;;2.20;;
17363;SDS011;8799;43.594;13.526;2024-03-23T14:09:31;4.33;;;2.30;;
17363;SDS011;8799;43.594;13.526;2024-03-23T14:11:59;4.23;;;2.47;;
17363;SDS011;8799;43.594;13.526;2024-03-23T14:14:25;3.93;;;2.40;;
17363;SDS011;8799;43.594;13.526;2024-03-23T14:16:53;5.43;;;2.37;;
17363;SDS011;8799;43.594;13.526;2024-03-23T14:19:19;3.63;;;2.33;;
17363;SDS011;8799;43.594;13.526;2024-03-23T14:21:48;3.80;;;2.40;;
17363;SDS011;8799;43.594;13.526;2024-03-23T14:24:15;4.17;;;2.40;;
17363;SDS011;8799;43.594;13.526;2024-03-23T14:26:43;4.63;;;2.87;;
17363;SDS011;8799;43.594;13.526;2024-03-23T14:29:09;3.27;;;2.13;;
17363;SDS011;8799;43.594;13.526;2024-03-23T14:31:37;3.17;;;2.17;;
17363;SDS011;8799;43.594;13.526;2024-03-23T14:34:03;4.70;;;2.10;;
17363;SDS011;8799;43.594;13.526;2024-03-23T14:36:31;4.97;;;2.30;;
17363;SDS011;8799;43.594;13.526;2024-03-23T14:38:59;3.93;;;2.13;;
17363;SDS011;8799;43.594;13.526;2024-03-23T14:41:27;3.90;;;2.23;;
17363;SDS011;8799;43.594;13.526;2024-03-23T14:43:54;4.67;;;2.40;;
17363;SDS011;8799;43.594;13.526;2024-03-23T14:46:22;3.90;;;1.90;;
17363;SDS011;8799;43.594;13.526;2024-03-23T14:48:48;4.40;;;2.20;;
17363;SDS011;8799;43.594;13.526;2024-03-23T14:51:16;2.60;;;1.73;;
17363;SDS011;8799;43.594;13.526;2024-03-23T14:53:45;2.67;;;2.23;;
17363;SDS011;8799;43.594;13.526;2024-03-23T14:56:15;2.97;;;2.20;;
17363;SDS011;8799;43.594;13.526;2024-03-23T14:58:42;3.80;;;2.07;;
17363;SDS011;8799;43.594;13.526;2024-03-23T15:01:10;3.43;;;2.00;;
17363;SDS011;8799;43.594;13.526;2024-03-23T15:03:37;2.60;;;1.93;;
17363;SDS011;8799;43.594;13.526;2024-03-23T15:06:05;4.23;;;2.43;;
17363;SDS011;8799;43.594;13.526;2024-03-23T15:08:34;3.63;;;2.17;;
17363;SDS011;8799;43.594;13.526;2024-03-23T15:11:02;2.47;;;1.80;;
17363;SDS011;8799;43.594;13.526;2024-03-23T15:13:32;6.40;;;2.33;;
17363;SDS011;8799;43.594;13.526;2024-03-23T15:16:00;3.97;;;2.23;;
17363;SDS011;8799;43.594;13.526;2024-03-23T15:18:28;3.30;;;1.73;;
17363;SDS011;8799;43.594;13.526;2024-03-23T15:20:57;3.10;;;2.10;;
17363;SDS011;8799;43.594;13.526;2024-03-23T15:23:27;3.87;;;1.87;;
17363;SDS011;8799;43.594;13.526;2024-03-23T15:25:55;5.47;;;2.00;;
17363;SDS011;8799;43.594;13.526;2024-03-23T15:28:21;3.77;;;2.10;;
17363;SDS011;8799;43.594;13.526;2024-03-23T15:30:50;7.83;;;2.23;;
17363;SDS011;8799;43.594;13.526;2024-03-23T15:33:17;4.37;;;2.30;;
17363;SDS011;8799;43.594;13.526;2024-03-23T15:35:44;4.00;;;2.20;;
17363;SDS011;8799;43.594;13.526;2024-03-23T15:38:11;3.27;;;1.60;;
17363;SDS011;8799;43.594;13.526;2024-03-23T15:40:39;2.57;;;1.53;;